createdAt,value
2023-05-19T00:00:51.625Z,998.09
2023-05-19T00:01:53.008Z,998.11
2023-05-19T00:02:54.951Z,998.07
2023-05-19T00:03:56.634Z,998.1
2023-05-19T00:04:58.510Z,998.1
2023-05-19T00:05:59.979Z,998.1
2023-05-19T00:07:01.668Z,998.15
2023-05-19T00:08:03.407Z,998.13
2023-05-19T00:09:05.242Z,998.08
2023-05-19T00:10:06.862Z,998.15
2023-05-19T00:11:08.586Z,998.15
2023-05-19T00:12:10.313Z,998.12
2023-05-19T00:13:12.058Z,998.16
2023-05-19T00:14:13.814Z,998.17
2023-05-19T00:15:15.547Z,998.18
2023-05-19T00:16:17.409Z,998.15
2023-05-19T00:17:19.006Z,998.17
2023-05-19T00:18:20.729Z,998.17
2023-05-19T00:19:22.688Z,998.19
2023-05-19T00:20:24.357Z,998.17
2023-05-19T00:21:25.944Z,998.14
2023-05-19T00:22:27.758Z,998.16
2023-05-19T00:23:29.513Z,998.13
2023-05-19T00:24:31.274Z,998.11
2023-05-19T00:25:32.882Z,998.12
2023-05-19T00:26:34.735Z,998.05
2023-05-19T00:27:36.335Z,998.1
2023-05-19T00:28:38.073Z,998.1
2023-05-19T00:29:39.805Z,998.08
2023-05-19T00:30:41.558Z,998.1
2023-05-19T00:31:43.295Z,998.08
2023-05-19T00:32:45.177Z,998.08
2023-05-19T00:33:46.740Z,998.06
2023-05-19T00:34:48.597Z,998.03
2023-05-19T00:35:50.593Z,998.05
2023-05-19T00:36:51.933Z,998.06
2023-05-19T00:37:53.752Z,998.05
2023-05-19T00:38:55.403Z,998
2023-05-19T00:39:57.129Z,998.07
2023-05-19T00:40:58.901Z,998
2023-05-19T00:42:00.668Z,998.03
2023-05-19T00:43:02.326Z,998.05
2023-05-19T00:44:13.932Z,997.99
2023-05-19T00:45:16.088Z,997.97
2023-05-19T00:46:17.840Z,997.96
2023-05-19T00:47:19.545Z,997.92
2023-05-19T00:48:21.306Z,997.96
2023-05-19T00:49:23.012Z,997.93
2023-05-19T00:50:24.756Z,997.98
2023-05-19T00:51:36.943Z,997.92
2023-05-19T00:52:38.512Z,997.95
2023-05-19T00:53:40.248Z,997.92
2023-05-19T00:54:41.973Z,997.98
2023-05-19T00:55:43.718Z,997.92
2023-05-19T00:56:45.429Z,997.91
2023-05-19T00:57:47.749Z,997.92
2023-05-19T00:58:48.890Z,997.86
2023-05-19T00:59:49.906Z,997.91
2023-05-19T01:00:52.426Z,997.84
2023-05-19T01:01:55.699Z,997.85
2023-05-19T01:02:55.990Z,997.87
2023-05-19T01:03:57.629Z,997.84
2023-05-19T01:04:59.529Z,997.86
2023-05-19T01:06:01.028Z,997.84
2023-05-19T01:07:10.880Z,997.82
2023-05-19T01:08:14.961Z,997.83
2023-05-19T01:09:16.592Z,997.83
2023-05-19T01:10:18.260Z,997.84
2023-05-19T01:11:20.144Z,997.81
2023-05-19T01:12:21.881Z,997.84
2023-05-19T01:13:23.454Z,997.79
2023-05-19T01:14:25.279Z,997.8
2023-05-19T01:15:27.002Z,997.87
2023-05-19T01:16:28.727Z,997.83
2023-05-19T01:17:30.447Z,997.83
2023-05-19T01:18:32.274Z,997.76
2023-05-19T01:19:33.860Z,997.72
2023-05-19T01:20:35.944Z,997.79
2023-05-19T01:21:37.312Z,997.8
2023-05-19T01:22:39.055Z,997.78
2023-05-19T01:23:40.871Z,997.8
2023-05-19T01:24:42.515Z,997.8
2023-05-19T01:25:44.274Z,997.8
2023-05-19T01:26:46.115Z,997.79
2023-05-19T01:27:47.751Z,997.81
2023-05-19T01:28:49.549Z,997.8
2023-05-19T01:29:51.203Z,997.81
2023-05-19T01:30:52.931Z,997.78
2023-05-19T01:31:54.814Z,997.83
2023-05-19T01:32:56.592Z,997.82
2023-05-19T01:33:58.299Z,997.83
2023-05-19T01:34:59.852Z,997.85
2023-05-19T01:36:01.703Z,997.81
2023-05-19T01:37:03.524Z,997.84
2023-05-19T01:38:05.354Z,997.81
2023-05-19T01:39:06.871Z,997.83
2023-05-19T01:40:08.542Z,997.84
2023-05-19T01:41:10.359Z,997.84
2023-05-19T01:42:11.991Z,997.84
2023-05-19T01:43:13.876Z,997.85
2023-05-19T01:44:15.511Z,997.85
2023-05-19T01:45:17.189Z,997.85
2023-05-19T01:46:19.040Z,997.84
2023-05-19T01:47:20.686Z,997.84
2023-05-19T01:48:22.389Z,997.82
2023-05-19T01:49:24.134Z,997.9
2023-05-19T01:50:25.944Z,997.89
2023-05-19T01:51:28.041Z,997.9
2023-05-19T01:52:29.332Z,997.88
2023-05-19T01:53:31.075Z,997.88
2023-05-19T01:54:32.783Z,997.88
2023-05-19T01:55:34.562Z,997.89
2023-05-19T01:56:36.838Z,997.88
2023-05-19T01:57:38.200Z,997.92
2023-05-19T01:58:39.731Z,997.9
2023-05-19T01:59:41.506Z,997.92
2023-05-19T02:00:50.994Z,997.88
2023-05-19T02:01:55.217Z,997.92
2023-05-19T02:02:57.004Z,997.91
2023-05-19T02:03:58.927Z,997.98
2023-05-19T02:05:00.616Z,997.98
2023-05-19T02:06:02.130Z,997.94
2023-05-19T02:07:03.884Z,997.91
2023-05-19T02:08:05.827Z,997.98
2023-05-19T02:09:07.686Z,997.98
2023-05-19T02:10:09.099Z,997.99
2023-05-19T02:11:10.814Z,997.95
2023-05-19T02:12:12.554Z,997.99
2023-05-19T02:13:14.283Z,997.95
2023-05-19T02:14:16.051Z,997.97
2023-05-19T02:15:17.760Z,997.99
2023-05-19T02:16:19.601Z,997.98
2023-05-19T02:17:21.283Z,998
2023-05-19T02:18:22.940Z,997.89
2023-05-19T02:19:24.795Z,997.97
2023-05-19T02:20:26.484Z,997.94
2023-05-19T02:21:28.182Z,997.95
2023-05-19T02:22:30.054Z,997.96
2023-05-19T02:23:31.627Z,997.97
2023-05-19T02:24:33.368Z,997.92
2023-05-19T02:25:35.117Z,997.97
2023-05-19T02:26:36.825Z,997.93
2023-05-19T02:27:38.545Z,997.9
2023-05-19T02:28:40.269Z,997.92
2023-05-19T02:29:42.016Z,997.91
2023-05-19T02:30:44.207Z,997.8
2023-05-19T02:31:55.847Z,997.88
2023-05-19T02:32:57.581Z,997.89
2023-05-19T02:33:59.449Z,997.91
2023-05-19T02:35:01.172Z,997.88
2023-05-19T02:36:03.114Z,997.88
2023-05-19T02:37:04.431Z,997.85
2023-05-19T02:38:11.284Z,997.86
2023-05-19T02:39:13.504Z,997.79
2023-05-19T02:40:14.902Z,997.8
2023-05-19T02:41:16.508Z,997.83
2023-05-19T02:42:17.459Z,997.82
2023-05-19T02:43:20.372Z,997.79
2023-05-19T02:44:21.724Z,997.82
2023-05-19T02:45:26.427Z,997.83
2023-05-19T02:46:30.715Z,997.74
2023-05-19T02:47:31.453Z,997.74
2023-05-19T02:48:38.264Z,997.72
2023-05-19T02:49:40.671Z,997.72
2023-05-19T02:50:42.383Z,997.75
2023-05-19T02:51:44.151Z,997.71
2023-05-19T02:52:46.074Z,997.69
2023-05-19T02:53:47.714Z,997.75
2023-05-19T02:54:49.369Z,997.75
2023-05-19T02:55:51.249Z,997.76
2023-05-19T02:56:52.818Z,997.77
2023-05-19T02:57:56.461Z,997.71
2023-05-19T02:59:01.444Z,997.76
2023-05-19T03:00:03.180Z,997.78
2023-05-19T03:01:06.356Z,997.76
2023-05-19T03:02:07.362Z,997.68
2023-05-19T03:03:14.065Z,997.74
2023-05-19T03:04:15.696Z,997.74
2023-05-19T03:05:17.563Z,997.75
2023-05-19T03:06:19.010Z,997.73
2023-05-19T03:07:20.757Z,997.74
2023-05-19T03:08:22.654Z,997.74
2023-05-19T03:09:25.212Z,997.77
2023-05-19T03:10:26.162Z,997.73
2023-05-19T03:11:29.100Z,997.73
2023-05-19T03:12:29.421Z,997.68
2023-05-19T03:13:31.151Z,997.73
2023-05-19T03:14:32.891Z,997.72
2023-05-19T03:15:34.623Z,997.71
2023-05-19T03:16:36.479Z,997.72
2023-05-19T03:17:39.512Z,997.69
2023-05-19T03:18:39.879Z,997.69
2023-05-19T03:19:41.625Z,997.74
2023-05-19T03:20:43.285Z,997.77
2023-05-19T03:21:45.029Z,997.74
2023-05-19T03:22:46.742Z,997.76
2023-05-19T03:23:48.517Z,997.76
2023-05-19T03:24:50.406Z,997.69
2023-05-19T03:25:52.176Z,997.76
2023-05-19T03:26:53.676Z,997.73
2023-05-19T03:27:55.437Z,997.74
2023-05-19T03:28:57.246Z,997.75
2023-05-19T03:29:58.903Z,997.79
2023-05-19T03:31:00.764Z,997.76
2023-05-19T03:32:02.500Z,997.73
2023-05-19T03:33:04.306Z,997.73
2023-05-19T03:34:05.874Z,997.78
2023-05-19T03:35:07.575Z,997.79
2023-05-19T03:36:09.297Z,997.84
2023-05-19T03:37:10.098Z,997.83
2023-05-19T03:38:11.983Z,997.83
2023-05-19T03:39:14.524Z,997.84
2023-05-19T03:40:16.185Z,997.82
2023-05-19T03:41:17.949Z,997.82
2023-05-19T03:42:19.783Z,997.83
2023-05-19T03:43:21.560Z,997.82
2023-05-19T03:44:23.166Z,997.8
2023-05-19T03:45:24.971Z,997.77
2023-05-19T03:46:26.866Z,997.82
2023-05-19T03:47:28.501Z,997.78
2023-05-19T03:48:30.092Z,997.8
2023-05-19T03:49:31.845Z,997.83
2023-05-19T03:50:33.765Z,997.78
2023-05-19T03:51:35.254Z,997.83
2023-05-19T03:52:37.019Z,997.79
2023-05-19T03:53:38.754Z,997.79
2023-05-19T03:54:40.595Z,997.79
2023-05-19T03:55:42.218Z,997.75
2023-05-19T03:56:44.134Z,997.75
2023-05-19T03:57:45.679Z,997.78
2023-05-19T03:58:47.443Z,997.77
2023-05-19T03:59:49.281Z,997.77
2023-05-19T04:00:50.888Z,997.77
2023-05-19T04:01:52.702Z,997.76
2023-05-19T04:02:54.678Z,997.75
2023-05-19T04:03:56.627Z,997.79
2023-05-19T04:04:58.015Z,997.75
2023-05-19T04:05:59.601Z,997.78
2023-05-19T04:07:19.808Z,997.78
2023-05-19T04:08:21.853Z,997.81
2023-05-19T04:09:23.273Z,997.81
2023-05-19T04:10:24.986Z,997.84
2023-05-19T04:11:26.957Z,997.83
2023-05-19T04:12:28.654Z,997.86
2023-05-19T04:13:30.191Z,997.9
2023-05-19T04:14:31.912Z,997.86
2023-05-19T04:15:32.717Z,997.9
2023-05-19T04:16:35.397Z,997.86
2023-05-19T04:17:37.214Z,997.84
2023-05-19T04:18:38.916Z,997.91
2023-05-19T04:19:42.250Z,997.89
2023-05-19T04:20:42.353Z,997.87
2023-05-19T04:21:45.716Z,997.91
2023-05-19T04:22:45.908Z,997.92
2023-05-19T04:23:47.551Z,997.93
2023-05-19T04:24:49.396Z,997.96
2023-05-19T04:25:51.184Z,997.96
2023-05-19T04:26:52.825Z,997.94
2023-05-19T04:27:54.557Z,997.91
2023-05-19T04:28:57.020Z,997.96
2023-05-19T04:29:57.926Z,997.95
2023-05-19T04:31:00.383Z,997.87
2023-05-19T04:32:07.984Z,997.93
2023-05-19T04:33:08.452Z,997.92
2023-05-19T04:34:10.009Z,997.97
2023-05-19T04:35:11.731Z,997.94
2023-05-19T04:36:13.459Z,997.96
2023-05-19T04:37:15.317Z,997.97
2023-05-19T04:38:18.592Z,997.97
2023-05-19T04:39:18.800Z,998.01
2023-05-19T04:40:20.496Z,998.04
2023-05-19T04:41:22.281Z,998.02
2023-05-19T04:42:23.990Z,998.08
2023-05-19T04:43:25.722Z,998.09
2023-05-19T04:44:27.843Z,998.07
2023-05-19T04:45:29.256Z,998.03
2023-05-19T04:46:30.912Z,998.07
2023-05-19T04:47:33.020Z,998.04
2023-05-19T04:48:34.370Z,997.98
2023-05-19T04:49:36.082Z,997.99
2023-05-19T04:50:37.810Z,998.03
2023-05-19T04:51:39.627Z,998.02
2023-05-19T04:52:41.423Z,998.03
2023-05-19T04:53:44.735Z,998.03
2023-05-19T04:54:44.762Z,998.05
2023-05-19T04:55:46.616Z,998.04
2023-05-19T04:56:48.272Z,998.02
2023-05-19T04:57:55.123Z,998.03
2023-05-19T04:59:07.239Z,998.06
2023-05-19T05:00:08.904Z,998.05
2023-05-19T05:01:11.201Z,998.01
2023-05-19T05:02:12.668Z,998.02
2023-05-19T05:03:14.203Z,998
2023-05-19T05:04:15.797Z,997.98
2023-05-19T05:05:17.549Z,998
2023-05-19T05:06:19.372Z,998.09
2023-05-19T05:07:21.118Z,998.09
2023-05-19T05:08:23.256Z,998.05
2023-05-19T05:09:24.486Z,998.04
2023-05-19T05:10:26.240Z,998.05
2023-05-19T05:11:28.036Z,998.03
2023-05-19T05:12:29.798Z,998.04
2023-05-19T05:13:31.486Z,998.04
2023-05-19T05:14:33.152Z,998.09
2023-05-19T05:15:35.074Z,998.07
2023-05-19T05:16:36.929Z,998.08
2023-05-19T05:17:38.509Z,998.1
2023-05-19T05:18:42.227Z,998.11
2023-05-19T05:19:41.836Z,998.11
2023-05-19T05:20:45.773Z,998.09
2023-05-19T05:21:50.968Z,998.04
2023-05-19T05:22:52.175Z,998.1
2023-05-19T05:23:54.801Z,998.07
2023-05-19T05:24:55.610Z,998.09
2023-05-19T05:25:57.505Z,998.09
2023-05-19T05:26:59.100Z,998.01
2023-05-19T05:28:00.900Z,998.08
2023-05-19T05:29:02.560Z,998.01
2023-05-19T05:30:04.301Z,998.06
2023-05-19T05:31:06.012Z,998.05
2023-05-19T05:32:08.238Z,998.05
2023-05-19T05:33:09.712Z,998.03
2023-05-19T05:34:11.229Z,998.06
2023-05-19T05:35:13.054Z,998.05
2023-05-19T05:36:14.911Z,998.06
2023-05-19T05:37:16.409Z,998.05
2023-05-19T05:38:18.168Z,998.01
2023-05-19T05:39:19.986Z,998.06
2023-05-19T05:40:21.728Z,998.12
2023-05-19T05:41:23.587Z,998.02
2023-05-19T05:42:26.262Z,998.01
2023-05-19T05:43:26.812Z,998.02
2023-05-19T05:44:28.548Z,997.94
2023-05-19T05:45:30.425Z,997.98
2023-05-19T05:46:32.331Z,997.96
2023-05-19T05:47:33.788Z,997.88
2023-05-19T05:48:35.499Z,997.89
2023-05-19T05:49:37.224Z,997.92
2023-05-19T05:50:39.078Z,997.91
2023-05-19T05:51:40.771Z,997.93
2023-05-19T05:52:42.575Z,997.91
2023-05-19T05:53:45.273Z,997.9
2023-05-19T05:54:45.924Z,997.92
2023-05-19T05:55:47.620Z,997.9
2023-05-19T05:56:49.670Z,997.91
2023-05-19T05:57:51.107Z,997.88
2023-05-19T05:58:52.919Z,997.84
2023-05-19T05:59:54.573Z,997.87
2023-05-19T06:00:56.294Z,997.88
2023-05-19T06:01:58.190Z,997.85
2023-05-19T06:03:00.035Z,997.83
2023-05-19T06:04:01.599Z,997.83
2023-05-19T06:05:03.680Z,997.83
2023-05-19T06:06:05.100Z,997.72
2023-05-19T06:07:06.691Z,997.81
2023-05-19T06:08:08.455Z,997.79
2023-05-19T06:09:10.175Z,997.86
2023-05-19T06:10:12.020Z,997.81
2023-05-19T06:11:13.765Z,997.78
2023-05-19T06:12:15.365Z,997.74
2023-05-19T06:13:17.069Z,997.74
2023-05-19T06:14:18.858Z,997.81
2023-05-19T06:15:20.560Z,997.78
2023-05-19T06:16:22.292Z,997.75
2023-05-19T06:17:24.033Z,997.78
2023-05-19T06:18:25.773Z,997.74
2023-05-19T06:19:27.582Z,997.74
2023-05-19T06:20:29.813Z,997.77
2023-05-19T06:21:30.244Z,997.78
2023-05-19T06:22:32.715Z,997.76
2023-05-19T06:23:34.432Z,997.76
2023-05-19T06:24:39.344Z,997.78
2023-05-19T06:25:39.810Z,997.72
2023-05-19T06:26:44.783Z,997.75
2023-05-19T06:27:46.530Z,997.76
2023-05-19T06:28:48.411Z,997.7
2023-05-19T06:29:50.576Z,997.73
2023-05-19T06:30:51.911Z,997.74
2023-05-19T06:31:53.611Z,997.72
2023-05-19T06:32:55.257Z,997.7
2023-05-19T06:33:56.946Z,997.75
2023-05-19T06:34:58.783Z,997.69
2023-05-19T06:36:00.522Z,997.75
2023-05-19T06:37:02.602Z,997.71
2023-05-19T06:38:04.034Z,997.69
2023-05-19T06:39:05.678Z,997.74
2023-05-19T06:40:07.528Z,997.67
2023-05-19T06:41:09.257Z,997.71
2023-05-19T06:42:10.783Z,997.73
2023-05-19T06:43:12.543Z,997.74
2023-05-19T06:44:14.274Z,997.74
2023-05-19T06:45:16.161Z,997.75
2023-05-19T06:46:17.796Z,997.69
2023-05-19T06:47:19.468Z,997.79
2023-05-19T06:48:21.257Z,997.78
2023-05-19T06:49:22.940Z,997.77
2023-05-19T06:50:24.673Z,997.78
2023-05-19T06:51:26.398Z,997.75
2023-05-19T06:52:28.229Z,997.72
2023-05-19T06:53:30.325Z,997.71
2023-05-19T06:54:31.585Z,997.7
2023-05-19T06:55:34.436Z,997.68
2023-05-19T06:56:36.359Z,997.7
2023-05-19T06:57:44.161Z,997.71
2023-05-19T06:58:46.594Z,997.67
2023-05-19T06:59:48.196Z,997.68
2023-05-19T07:00:50.207Z,997.69
2023-05-19T07:01:51.905Z,997.68
2023-05-19T07:02:53.484Z,997.68
2023-05-19T07:03:55.600Z,997.61
2023-05-19T07:04:56.892Z,997.66
2023-05-19T07:05:58.580Z,997.66
2023-05-19T07:07:00.310Z,997.68
2023-05-19T07:08:02.118Z,997.73
2023-05-19T07:09:03.787Z,997.64
2023-05-19T07:10:05.626Z,997.69
2023-05-19T07:11:07.269Z,997.69
2023-05-19T07:12:08.977Z,997.68
2023-05-19T07:13:10.720Z,997.67
2023-05-19T07:14:12.537Z,997.68
2023-05-19T07:15:14.188Z,997.69
2023-05-19T07:16:16.092Z,997.67
2023-05-19T07:17:17.684Z,997.71
2023-05-19T07:18:19.402Z,997.7
2023-05-19T07:19:21.180Z,997.67
2023-05-19T07:20:22.855Z,997.68
2023-05-19T07:21:24.619Z,997.67
2023-05-19T07:22:26.435Z,997.64
2023-05-19T07:23:28.135Z,997.61
2023-05-19T07:24:29.797Z,997.6
2023-05-19T07:25:31.538Z,997.61
2023-05-19T07:26:33.346Z,997.6
2023-05-19T07:27:34.999Z,997.58
2023-05-19T07:28:38.671Z,997.58
2023-05-19T07:29:38.457Z,997.57
2023-05-19T07:30:40.216Z,997.6
2023-05-19T07:31:41.968Z,997.59
2023-05-19T07:32:43.697Z,997.64
2023-05-19T07:33:45.479Z,997.63
2023-05-19T07:34:47.136Z,997.63
2023-05-19T07:35:48.866Z,997.66
2023-05-19T07:36:50.601Z,997.64
2023-05-19T07:37:52.337Z,997.59
2023-05-19T07:38:54.101Z,997.59
2023-05-19T07:39:55.955Z,997.61
2023-05-19T07:40:57.551Z,997.57
2023-05-19T07:41:59.329Z,997.58
2023-05-19T07:43:01.089Z,997.63
2023-05-19T07:44:02.770Z,997.58
2023-05-19T07:45:04.549Z,997.6
2023-05-19T07:46:06.380Z,997.61
2023-05-19T07:47:07.967Z,997.58
2023-05-19T07:48:09.741Z,997.59
2023-05-19T07:49:11.528Z,997.56
2023-05-19T07:50:13.164Z,997.53
2023-05-19T07:51:14.916Z,997.53
2023-05-19T07:52:16.600Z,997.55
2023-05-19T07:53:18.500Z,997.54
2023-05-19T07:54:20.159Z,997.58
2023-05-19T07:55:21.890Z,997.55
2023-05-19T07:56:23.554Z,997.58
2023-05-19T07:57:25.288Z,997.51
2023-05-19T07:58:27.070Z,997.53
2023-05-19T07:59:28.948Z,997.6
2023-05-19T08:00:30.774Z,997.6
2023-05-19T08:01:32.414Z,997.51
2023-05-19T08:02:34.146Z,997.56
2023-05-19T08:03:36.029Z,997.53
2023-05-19T08:04:37.482Z,997.52
2023-05-19T08:05:39.320Z,997.55
2023-05-19T08:06:41.072Z,997.53
2023-05-19T08:07:42.706Z,997.5
2023-05-19T08:08:44.373Z,997.5
2023-05-19T08:09:46.110Z,997.55
2023-05-19T08:10:47.933Z,997.5
2023-05-19T08:11:49.567Z,997.52
2023-05-19T08:12:51.291Z,997.5
2023-05-19T08:13:53.012Z,997.51
2023-05-19T08:14:54.755Z,997.5
2023-05-19T08:15:56.631Z,997.49
2023-05-19T08:16:58.232Z,997.5
2023-05-19T08:18:00.015Z,997.5
2023-05-19T08:19:01.872Z,997.5
2023-05-19T08:20:03.472Z,997.54
2023-05-19T08:21:05.260Z,997.53
2023-05-19T08:22:06.906Z,997.54
2023-05-19T08:23:08.651Z,997.53
2023-05-19T08:24:10.357Z,997.5
2023-05-19T08:25:12.135Z,997.51
2023-05-19T08:26:13.822Z,997.49
2023-05-19T08:27:15.571Z,997.49
2023-05-19T08:28:17.361Z,997.45
2023-05-19T08:29:19.034Z,997.44
2023-05-19T08:30:20.791Z,997.47
2023-05-19T08:31:22.562Z,997.46
2023-05-19T08:32:24.299Z,997.44
2023-05-19T08:33:26.012Z,997.47
2023-05-19T08:34:27.803Z,997.44
2023-05-19T08:35:29.456Z,997.39
2023-05-19T08:36:31.178Z,997.42
2023-05-19T08:37:34.216Z,997.37
2023-05-19T08:38:34.649Z,997.36
2023-05-19T08:39:36.405Z,997.32
2023-05-19T08:40:38.130Z,997.32
2023-05-19T08:41:40.076Z,997.31
2023-05-19T08:42:41.580Z,997.31
2023-05-19T08:43:43.313Z,997.36
2023-05-19T08:44:45.052Z,997.34
2023-05-19T08:45:46.889Z,997.34
2023-05-19T08:46:48.572Z,997.35
2023-05-19T08:47:50.277Z,997.32
2023-05-19T08:48:51.987Z,997.33
2023-05-19T08:49:53.720Z,997.3
2023-05-19T08:50:55.453Z,997.27
2023-05-19T08:51:57.191Z,997.27
2023-05-19T08:52:59.149Z,997.25
2023-05-19T08:54:00.658Z,997.22
2023-05-19T08:55:02.477Z,997.25
2023-05-19T08:56:04.148Z,997.21
2023-05-19T08:57:05.882Z,997.18
2023-05-19T08:58:07.611Z,997.17
2023-05-19T08:59:09.338Z,997.16
2023-05-19T09:00:11.073Z,997.19
2023-05-19T09:01:12.833Z,997.13
2023-05-19T09:02:14.557Z,997.15
2023-05-19T09:03:18.525Z,997.12
2023-05-19T09:04:18.194Z,997.09
2023-05-19T09:05:19.801Z,997.09
2023-05-19T09:06:21.644Z,997.01
2023-05-19T09:07:23.358Z,997
2023-05-19T09:08:25.086Z,996.98
2023-05-19T09:09:26.663Z,996.97
2023-05-19T09:10:29.202Z,996.97
2023-05-19T09:11:30.141Z,996.95
2023-05-19T09:12:32.107Z,996.93
2023-05-19T09:13:33.716Z,996.91
2023-05-19T09:14:35.424Z,996.94
2023-05-19T09:15:37.110Z,996.9
2023-05-19T09:16:38.802Z,996.87
2023-05-19T09:17:40.565Z,996.9
2023-05-19T09:18:42.333Z,996.87
2023-05-19T09:19:44.033Z,996.85
2023-05-19T09:20:45.881Z,996.86
2023-05-19T09:21:47.508Z,996.88
2023-05-19T09:22:49.176Z,996.8
2023-05-19T09:23:50.807Z,996.91
2023-05-19T09:24:52.541Z,996.92
2023-05-19T09:25:54.241Z,996.89
2023-05-19T09:26:57.056Z,996.88
2023-05-19T09:27:57.788Z,996.83
2023-05-19T09:28:59.472Z,996.89
2023-05-19T09:30:01.214Z,996.8
2023-05-19T09:31:02.964Z,996.85
2023-05-19T09:32:04.795Z,996.79
2023-05-19T09:33:06.411Z,996.8
2023-05-19T09:34:08.123Z,996.71
2023-05-19T09:35:09.945Z,996.72
2023-05-19T09:36:11.601Z,996.73
2023-05-19T09:37:13.333Z,996.68
2023-05-19T09:38:15.150Z,996.61
2023-05-19T09:39:16.809Z,996.58
2023-05-19T09:40:18.578Z,996.6
2023-05-19T09:41:20.373Z,996.63
2023-05-19T09:42:22.018Z,996.61
2023-05-19T09:43:23.738Z,996.64
2023-05-19T09:44:25.466Z,996.59
2023-05-19T09:45:27.225Z,996.54
2023-05-19T09:46:29.015Z,996.53
2023-05-19T09:47:30.708Z,996.52
2023-05-19T09:48:32.402Z,996.54
2023-05-19T09:49:34.161Z,996.59
2023-05-19T09:50:35.880Z,996.58
2023-05-19T09:51:37.714Z,996.57
2023-05-19T09:52:39.443Z,996.55
2023-05-19T09:53:41.080Z,996.45
2023-05-19T09:54:42.798Z,996.47
2023-05-19T09:55:44.544Z,996.47
2023-05-19T09:56:46.269Z,996.5
2023-05-19T09:57:48.011Z,996.54
2023-05-19T09:58:49.822Z,996.43
2023-05-19T09:59:51.534Z,996.44
2023-05-19T10:00:53.426Z,996.45
2023-05-19T10:01:54.973Z,996.44
2023-05-19T10:02:56.707Z,996.47
2023-05-19T10:03:58.414Z,996.44
2023-05-19T10:05:00.594Z,996.43
2023-05-19T10:06:02.250Z,996.42
2023-05-19T10:07:03.625Z,996.4
2023-05-19T10:08:05.364Z,996.41
2023-05-19T10:09:07.060Z,996.33
2023-05-19T10:10:08.824Z,996.34
2023-05-19T10:11:10.539Z,996.39
2023-05-19T10:12:12.266Z,996.36
2023-05-19T10:13:14.122Z,996.35
2023-05-19T10:14:15.761Z,996.35
2023-05-19T10:15:17.691Z,996.38
2023-05-19T10:16:19.217Z,996.39
2023-05-19T10:17:20.951Z,996.39
2023-05-19T10:18:22.696Z,996.34
2023-05-19T10:19:24.541Z,996.36
2023-05-19T10:20:26.146Z,996.35
2023-05-19T10:21:27.984Z,996.38
2023-05-19T10:22:29.721Z,996.4
2023-05-19T10:23:31.377Z,996.34
2023-05-19T10:24:33.094Z,996.31
2023-05-19T10:25:35.209Z,996.36
2023-05-19T10:26:36.560Z,996.27
2023-05-19T10:27:38.434Z,996.29
2023-05-19T10:28:40.007Z,996.27
2023-05-19T10:29:41.812Z,996.31
2023-05-19T10:30:43.555Z,996.28
2023-05-19T10:31:45.266Z,996.28
2023-05-19T10:32:46.992Z,996.26
2023-05-19T10:33:48.693Z,996.27
2023-05-19T10:34:50.605Z,996.25
2023-05-19T10:35:52.253Z,996.23
2023-05-19T10:36:53.907Z,996.23
2023-05-19T10:37:55.693Z,996.25
2023-05-19T10:38:57.372Z,996.24
2023-05-19T10:39:59.081Z,996.24
2023-05-19T10:41:12.187Z,996.19
2023-05-19T10:42:07.730Z,996.19
2023-05-19T10:43:10.073Z,996.21
2023-05-19T10:44:11.200Z,996.19
2023-05-19T10:45:12.919Z,996.11
2023-05-19T10:46:14.895Z,996.15
2023-05-19T10:47:16.409Z,996.12
2023-05-19T10:48:18.131Z,996.1
2023-05-19T10:49:19.852Z,996.08
2023-05-19T10:50:21.601Z,996.06
2023-05-19T10:51:23.338Z,996.11
2023-05-19T10:52:25.045Z,996.08
2023-05-19T10:53:26.975Z,996.09
2023-05-19T10:54:28.625Z,996.08
2023-05-19T10:55:30.467Z,996.07
2023-05-19T10:56:32.001Z,996.08
2023-05-19T10:57:33.731Z,996.09
2023-05-19T10:58:35.460Z,996.09
2023-05-19T10:59:37.299Z,996.06
2023-05-19T11:00:38.945Z,996.13
2023-05-19T11:01:40.717Z,996.11
2023-05-19T11:02:42.726Z,996.09
2023-05-19T11:03:44.614Z,996.12
2023-05-19T11:04:45.867Z,996.15
2023-05-19T11:05:47.631Z,996.16
2023-05-19T11:06:49.346Z,996.12
2023-05-19T11:07:51.087Z,996.1
2023-05-19T11:08:52.777Z,996.17
2023-05-19T11:09:54.534Z,996.12
2023-05-19T11:10:56.262Z,996.16
2023-05-19T11:11:58.008Z,996.19
2023-05-19T11:12:59.851Z,996.15
2023-05-19T11:14:01.485Z,996.11
2023-05-19T11:15:03.353Z,996.12
2023-05-19T11:16:05.067Z,996.13
2023-05-19T11:17:06.735Z,996.09
2023-05-19T11:18:08.507Z,996.09
2023-05-19T11:19:10.313Z,996.08
2023-05-19T11:20:11.872Z,996.09
2023-05-19T11:21:13.741Z,996
2023-05-19T11:22:15.359Z,996.08
2023-05-19T11:23:17.100Z,996.08
2023-05-19T11:24:18.920Z,996.09
2023-05-19T11:25:20.697Z,996.04
2023-05-19T11:26:22.265Z,996.04
2023-05-19T11:27:24.015Z,996.08
2023-05-19T11:28:25.817Z,996.02
2023-05-19T11:29:27.484Z,996.01
2023-05-19T11:30:29.224Z,996.02
2023-05-19T11:31:30.977Z,996.04
2023-05-19T11:32:32.722Z,996.07
2023-05-19T11:33:34.419Z,996.03
2023-05-19T11:34:36.157Z,996.06
2023-05-19T11:35:38.101Z,996.02
2023-05-19T11:36:39.820Z,995.93
2023-05-19T11:37:41.378Z,996
2023-05-19T11:38:43.096Z,995.96
2023-05-19T11:39:44.881Z,996
2023-05-19T11:40:46.566Z,995.95
2023-05-19T11:41:48.306Z,995.91
2023-05-19T11:42:50.032Z,995.88
2023-05-19T11:43:51.769Z,995.92
2023-05-19T11:44:53.494Z,995.9
2023-05-19T11:45:55.414Z,995.9
2023-05-19T11:46:57.002Z,995.82
2023-05-19T11:48:02.492Z,995.86
2023-05-19T11:49:00.435Z,995.87
2023-05-19T11:50:02.272Z,995.92
2023-05-19T11:51:03.991Z,995.9
2023-05-19T11:52:05.649Z,995.87
2023-05-19T11:53:07.374Z,995.97
2023-05-19T11:54:09.118Z,995.98
2023-05-19T11:55:11.005Z,995.9
2023-05-19T11:56:12.572Z,995.89
2023-05-19T11:57:14.301Z,995.92
2023-05-19T11:58:16.083Z,995.87
2023-05-19T11:59:17.788Z,995.9
2023-05-19T12:00:19.538Z,995.89
2023-05-19T12:01:21.241Z,995.91
2023-05-19T12:02:23.047Z,995.86
2023-05-19T12:03:24.817Z,995.87
2023-05-19T12:04:26.594Z,995.87
2023-05-19T12:05:28.260Z,995.83
2023-05-19T12:06:30.010Z,995.84
2023-05-19T12:07:32.246Z,995.86
2023-05-19T12:08:33.391Z,995.83
2023-05-19T12:09:35.273Z,995.8
2023-05-19T12:10:36.845Z,995.81
2023-05-19T12:11:38.594Z,995.82
2023-05-19T12:12:40.509Z,995.79
2023-05-19T12:13:42.082Z,995.83
2023-05-19T12:14:43.802Z,995.81
2023-05-19T12:15:45.543Z,995.76
2023-05-19T12:16:47.399Z,995.74
2023-05-19T12:17:49.047Z,995.76
2023-05-19T12:18:50.784Z,995.73
2023-05-19T12:19:52.468Z,995.78
2023-05-19T12:20:54.198Z,995.84
2023-05-19T12:21:55.918Z,995.83
2023-05-19T12:22:57.659Z,995.83
2023-05-19T12:23:59.394Z,995.81
2023-05-19T12:25:01.236Z,995.83
2023-05-19T12:26:02.853Z,995.8
2023-05-19T12:27:04.680Z,995.79
2023-05-19T12:28:06.331Z,995.79
2023-05-19T12:29:08.077Z,995.8
2023-05-19T12:30:09.892Z,995.7
2023-05-19T12:31:11.713Z,995.68
2023-05-19T12:32:13.265Z,995.73
2023-05-19T12:33:15.151Z,995.7
2023-05-19T12:34:16.732Z,995.7
2023-05-19T12:35:18.464Z,995.71
2023-05-19T12:36:20.194Z,995.71
2023-05-19T12:37:22.000Z,995.72
2023-05-19T12:38:23.682Z,995.68
2023-05-19T12:39:25.398Z,995.72
2023-05-19T12:40:27.138Z,995.7
2023-05-19T12:41:29.013Z,995.74
2023-05-19T12:42:30.612Z,995.72
2023-05-19T12:43:32.370Z,995.74
2023-05-19T12:44:34.069Z,995.69
2023-05-19T12:45:35.823Z,995.68
2023-05-19T12:46:37.533Z,995.65
2023-05-19T12:47:39.425Z,995.61
2023-05-19T12:48:41.064Z,995.63
2023-05-19T12:49:42.906Z,995.62
2023-05-19T12:50:44.468Z,995.58
2023-05-19T12:51:46.213Z,995.63
2023-05-19T12:52:47.923Z,995.58
2023-05-19T12:53:49.707Z,995.59
2023-05-19T12:54:51.450Z,995.6
2023-05-19T12:55:53.209Z,995.5